Time;durP1;ratioP1;P1;durP2;ratioP2;P2;SDS_P1;SDS_P2;PMS_P1;PMS_P2;Temp;Humidity;BMP_temperature;BMP_pressure;BME280_temperature;BME280_humidity;BME280_pressure;Samples;Min_cycle;Max_cycle;Signal;HPM_P1;HPM_P2
2021/08/25 00:03:29;;;;;;;3.07;1.37;;;;;;;;;;10291669;28;20037;-65
2021/08/25 00:08:27;;;;;;;0.40;0.40;;;;;;;;;;10259871;28;20506;-65
2021/08/25 00:13:24;;;;;;;0.80;0.80;;;;;;;;;;10279101;28;20510;-66
2021/08/25 00:18:21;;;;;;;1.13;0.67;;;;;;;;;;10275413;28;20220;-65
2021/08/25 00:23:19;;;;;;;0.63;0.63;;;;;;;;;;10297680;28;20092;-64
2021/08/25 00:28:16;;;;;;;1.03;0.30;;;;;;;;;;10291569;28;20030;-68
2021/08/25 00:33:14;;;;;;;3.57;1.07;;;;;;;;;;10267842;28;20029;-64
2021/08/25 00:38:11;;;;;;;3.17;1.40;;;;;;;;;;10285507;28;20052;-63
2021/08/25 00:43:10;;;;;;;2.33;1.10;;;;;;;;;;10238722;28;20486;-64
2021/08/25 00:48:07;;;;;;;1.02;1.00;;;;;;;;;;10291414;28;20107;-64
2021/08/25 00:53:06;;;;;;;2.07;0.90;;;;;;;;;;10282344;28;20100;-64
2021/08/25 00:58:05;;;;;;;0.30;0.30;;;;;;;;;;10260194;28;20038;-66
2021/08/25 01:03:22;;;;;;;1.00;0.70;;;;;;;;;;10295745;28;20045;-64
2021/08/25 01:08:20;;;;;;;2.63;0.47;;;;;;;;;;10275764;28;20042;-66
2021/08/25 01:13:17;;;;;;;0.20;0.20;;;;;;;;;;10267608;28;20037;-65
2021/08/25 01:18:16;;;;;;;0.53;0.53;;;;;;;;;;10263502;28;20037;-65
2021/08/25 01:23:13;;;;;;;;;;;;;;;;;;10277006;28;20144;-66
2021/08/25 01:28:13;;;;;;;1.27;1.15;;;;;;;;;;10275629;28;19913;-67
2021/08/25 01:33:21;;;;;;;0.20;0.17;;;;;;;;;;10288531;28;20526;-65
2021/08/25 01:38:37;;;;;;;0.13;0.13;;;;;;;;;;10301928;28;20079;-63
2021/08/25 01:43:35;;;;;;;2.00;1.35;;;;;;;;;;10288295;28;20514;-66
2021/08/25 01:48:33;;;;;;;1.47;1.13;;;;;;;;;;10293628;28;20049;-64
2021/08/25 01:53:30;;;;;;;1.70;1.60;;;;;;;;;;10273774;28;20045;-64
2021/08/25 01:58:27;;;;;;;2.53;1.23;;;;;;;;;;10248688;28;20418;-64
2021/08/25 02:03:25;;;;;;;0.70;0.67;;;;;;;;;;10272746;28;20412;-66
2021/08/25 02:08:22;;;;;;;6.73;4.17;;;;;;;;;;10273670;28;20042;-66
2021/08/25 02:13:20;;;;;;;6.77;4.47;;;;;;;;;;10271829;28;20455;-66
2021/08/25 02:18:17;;;;;;;8.83;4.87;;;;;;;;;;10267277;28;20055;-67
2021/08/25 02:23:15;;;;;;;0.60;0.33;;;;;;;;;;10279974;28;20040;-66
2021/08/25 02:28:12;;;;;;;2.67;0.53;;;;;;;;;;10252742;28;20036;-65
2021/08/25 02:33:10;;;;;;;1.00;0.97;;;;;;;;;;10292655;28;20283;-66
2021/08/25 02:38:07;;;;;;;7.10;4.17;;;;;;;;;;10255237;28;20037;-66
2021/08/25 02:43:05;;;;;;;6.37;4.50;;;;;;;;;;10290988;28;20468;-65
2021/08/25 02:48:03;;;;;;;3.53;0.75;;;;;;;;;;10291302;28;20227;-67
2021/08/25 02:53:01;;;;;;;0.33;0.33;;;;;;;;;;10263026;28;20251;-67
2021/08/25 02:57:59;;;;;;;0.40;0.35;;;;;;;;;;10298210;28;20109;-66
2021/08/25 03:02:56;;;;;;;6.37;2.77;;;;;;;;;;10322101;28;20037;-66
2021/08/25 03:07:53;;;;;;;4.77;3.00;;;;;;;;;;10334637;28;20033;-65
2021/08/25 03:12:51;;;;;;;5.73;2.63;;;;;;;;;;10335689;28;20171;-67
2021/08/25 03:17:48;;;;;;;5.33;2.40;;;;;;;;;;10304986;28;20120;-66
2021/08/25 03:22:46;;;;;;;6.57;2.80;;;;;;;;;;10306957;28;20046;-66
2021/08/25 03:27:43;;;;;;;4.37;2.30;;;;;;;;;;10297395;28;20087;-71
2021/08/25 03:32:41;;;;;;;3.40;2.63;;;;;;;;;;10329792;28;20051;-66
2021/08/25 03:37:38;;;;;;;4.20;2.40;;;;;;;;;;10339833;28;20037;-66
2021/08/25 03:42:36;;;;;;;4.37;2.03;;;;;;;;;;10317863;28;20037;-65
2021/08/25 03:47:33;;;;;;;4.53;2.67;;;;;;;;;;10340715;28;20034;-65
2021/08/25 03:52:30;;;;;;;6.10;2.57;;;;;;;;;;10345977;28;20048;-67
2021/08/25 03:57:28;;;;;;;1.73;0.50;;;;;;;;;;10273404;28;20669;-64
2021/08/25 04:02:25;;;;;;;0.57;0.50;;;;;;;;;;10282958;28;20091;-65
2021/08/25 04:07:23;;;;;;;0.80;0.60;;;;;;;;;;10276373;28;20029;-64
2021/08/25 04:12:20;;;;;;;1.13;0.87;;;;;;;;;;10290648;28;20037;-66
2021/08/25 04:17:17;;;;;;;2.70;0.60;;;;;;;;;;10266240;28;20477;-66
2021/08/25 04:22:15;;;;;;;3.90;0.87;;;;;;;;;;10277617;28;20533;-68
2021/08/25 04:27:12;;;;;;;3.33;0.70;;;;;;;;;;10274181;28;20041;-66
2021/08/25 04:32:10;;;;;;;2.77;0.80;;;;;;;;;;10258038;28;20678;-67
2021/08/25 04:37:07;;;;;;;2.10;1.13;;;;;;;;;;10267400;28;20414;-66
2021/08/25 04:42:05;;;;;;;2.83;1.00;;;;;;;;;;10271962;28;20041;-70
2021/08/25 04:47:03;;;;;;;1.65;0.55;;;;;;;;;;10236560;28;20556;-66
2021/08/25 04:52:01;;;;;;;1.60;0.70;;;;;;;;;;10256056;28;20061;-66
2021/08/25 04:56:58;;;;;;;2.33;0.67;;;;;;;;;;10262776;28;20041;-67
2021/08/25 05:01:55;;;;;;;5.87;0.97;;;;;;;;;;10276610;28;20040;-64
2021/08/25 05:06:53;;;;;;;1.50;0.63;;;;;;;;;;10277873;28;20128;-64
2021/08/25 05:11:50;;;;;;;2.23;0.70;;;;;;;;;;10260937;28;20040;-65
2021/08/25 05:16:48;;;;;;;1.27;0.70;;;;;;;;;;10279379;28;20041;-66
2021/08/25 05:21:45;;;;;;;2.73;0.73;;;;;;;;;;10260105;28;20557;-65
2021/08/25 05:26:42;;;;;;;3.83;0.60;;;;;;;;;;10271611;28;20048;-66
2021/08/25 05:31:40;;;;;;;1.33;0.87;;;;;;;;;;10271871;28;20410;-62
2021/08/25 05:36:38;;;;;;;3.03;0.77;;;;;;;;;;10278982;28;20507;-62
2021/08/25 05:41:35;;;;;;;1.35;1.10;;;;;;;;;;10256655;28;20036;-63
2021/08/25 05:46:33;;;;;;;3.27;1.00;;;;;;;;;;10263058;28;20069;-63
2021/08/25 05:51:31;;;;;;;1.13;0.98;;;;;;;;;;10269005;28;20037;-62
2021/08/25 05:56:28;;;;;;;2.13;0.80;;;;;;;;;;10257683;28;20034;-64
2021/08/25 06:01:26;;;;;;;3.37;0.70;;;;;;;;;;10254844;28;20507;-63
2021/08/25 06:06:30;;;;;;;2.00;1.00;;;;;;;;;;10257053;28;20040;-63
2021/08/25 06:11:27;;;;;;;1.02;0.68;;;;;;;;;;10275024;28;20552;-63
2021/08/25 06:16:25;;;;;;;0.83;0.60;;;;;;;;;;10280336;28;20414;-64
2021/08/25 06:21:23;;;;;;;2.97;0.60;;;;;;;;;;10245955;28;20498;-65
2021/08/25 06:26:20;;;;;;;0.67;0.37;;;;;;;;;;10258873;28;20095;-63
2021/08/25 06:31:18;;;;;;;1.27;0.50;;;;;;;;;;10266405;28;20041;-64
2021/08/25 06:36:15;;;;;;;1.03;0.47;;;;;;;;;;10234710;28;20038;-64
2021/08/25 06:41:13;;;;;;;3.60;0.57;;;;;;;;;;10267611;28;20301;-64
2021/08/25 06:46:10;;;;;;;1.30;0.50;;;;;;;;;;10259790;28;20029;-65
2021/08/25 06:51:08;;;;;;;1.03;0.47;;;;;;;;;;10236357;28;20026;-64
2021/08/25 06:56:05;;;;;;;0.30;0.30;;;;;;;;;;10260112;28;20041;-64
2021/08/25 07:01:03;;;;;;;0.83;0.63;;;;;;;;;;10258554;28;20033;-65
2021/08/25 07:06:00;;;;;;;2.20;0.47;;;;;;;;;;10247071;28;20096;-64
2021/08/25 07:10:57;;;;;;;0.30;0.30;;;;;;;;;;10252158;28;20067;-66
2021/08/25 07:15:55;;;;;;;1.13;0.60;;;;;;;;;;10245909;28;20145;-65
2021/08/25 07:20:53;;;;;;;1.80;0.50;;;;;;;;;;10246186;28;20048;-64
2021/08/25 07:25:50;;;;;;;0.47;0.30;;;;;;;;;;10276104;28;20041;-64
2021/08/25 07:30:48;;;;;;;1.00;0.20;;;;;;;;;;10260654;28;20029;-63
2021/08/25 07:35:48;;;;;;;1.30;0.47;;;;;;;;;;10281129;28;20028;-64
2021/08/25 07:40:46;;;;;;;2.63;0.38;;;;;;;;;;10270425;28;20036;-62
2021/08/25 07:45:43;;;;;;;0.93;0.40;;;;;;;;;;10284208;28;20026;-62
2021/08/25 07:50:41;;;;;;;1.33;0.33;;;;;;;;;;10281396;28;20026;-62
2021/08/25 07:55:38;;;;;;;0.30;0.30;;;;;;;;;;10290519;28;20077;-62
2021/08/25 08:00:36;;;;;;;0.40;0.20;;;;;;;;;;10264831;28;20053;-63
2021/08/25 08:05:33;;;;;;;0.60;0.37;;;;;;;;;;10283148;28;20119;-63
2021/08/25 08:10:31;;;;;;;0.60;0.20;;;;;;;;;;10257473;28;20042;-64
2021/08/25 08:15:30;;;;;;;0.40;0.20;;;;;;;;;;10264360;28;20406;-64
2021/08/25 08:20:27;;;;;;;0.17;0.15;;;;;;;;;;10277647;28;20422;-67
2021/08/25 08:25:25;;;;;;;0.90;0.27;;;;;;;;;;10260581;28;20053;-65
2021/08/25 08:30:22;;;;;;;2.53;0.10;;;;;;;;;;10289511;28;20053;-64
2021/08/25 08:35:20;;;;;;;1.70;0.10;;;;;;;;;;10288959;28;20037;-64
2021/08/25 08:40:21;;;;;;;1.60;0.40;;;;;;;;;;10263422;28;20422;-67
2021/08/25 08:45:20;;;;;;;0.95;0.32;;;;;;;;;;10294747;28;20045;-65
2021/08/25 08:50:17;;;;;;;0.43;0.30;;;;;;;;;;10280262;28;20065;-66
2021/08/25 08:55:15;;;;;;;0.47;0.10;;;;;;;;;;10259519;28;20148;-64
2021/08/25 09:00:13;;;;;;;0.93;0.20;;;;;;;;;;10248379;28;20046;-66
2021/08/25 09:05:27;;;;;;;2.33;0.22;;;;;;;;;;10245945;28;20034;-64
2021/08/25 09:10:32;;;;;;;0.47;0.35;;;;;;;;;;10254330;28;20244;-66
2021/08/25 09:15:31;;;;;;;1.73;0.25;;;;;;;;;;10234137;28;20355;-64
2021/08/25 09:20:31;;;;;;;1.98;0.40;;;;;;;;;;10269055;28;20095;-65
2021/08/25 09:25:31;;;;;;;0.77;0.57;;;;;;;;;;10283092;28;20048;-65
2021/08/25 09:31:01;;;;;;;1.60;0.50;;;;;;;;;;10263924;28;20503;-65
2021/08/25 09:36:00;;;;;;;1.02;0.73;;;;;;;;;;10200437;28;20232;-63
2021/08/25 09:41:03;;;;;;;0.47;0.20;;;;;;;;;;10264701;28;20030;-65
2021/08/25 09:46:03;;;;;;;1.38;0.40;;;;;;;;;;10270064;28;20125;-66
2021/08/25 09:51:00;;;;;;;2.90;0.20;;;;;;;;;;10240052;28;20324;-66
2021/08/25 09:55:57;;;;;;;1.40;0.17;;;;;;;;;;10272835;28;20033;-66
2021/08/25 10:00:55;;;;;;;0.60;0.53;;;;;;;;;;10237214;28;20066;-67
2021/08/25 10:05:52;;;;;;;0.37;0.30;;;;;;;;;;10258576;28;20038;-66
2021/08/25 10:10:50;;;;;;;1.08;0.30;;;;;;;;;;10230390;28;20771;-66
2021/08/25 10:15:47;;;;;;;;;;;;;;;;;;10258589;28;20180;-66
2021/08/25 10:20:45;;;;;;;0.22;0.22;;;;;;;;;;10265012;28;20357;-67
2021/08/25 10:25:42;;;;;;;;;;;;;;;;;;10263201;28;20131;-67
2021/08/25 10:30:57;;;;;;;0.10;0.10;;;;;;;;;;10253756;28;19913;-67
2021/08/25 10:35:54;;;;;;;1.98;0.20;;;;;;;;;;10271668;28;20046;-69
2021/08/25 10:40:52;;;;;;;;;;;;;;;;;;10269548;28;20044;-67
2021/08/25 10:45:55;;;;;;;2.20;0.25;;;;;;;;;;10289220;28;19923;-68
2021/08/25 10:50:58;;;;;;;3.10;0.32;;;;;;;;;;10279502;28;20042;-65
2021/08/25 10:56:07;;;;;;;2.08;0.30;;;;;;;;;;10277404;28;20057;-66
2021/08/25 11:01:04;;;;;;;0.20;0.15;;;;;;;;;;10277742;28;20030;-65
2021/08/25 11:06:01;;;;;;;;;;;;;;;;;;10284217;28;20045;-69
2021/08/25 11:11:12;;;;;;;1.00;0.20;;;;;;;;;;10268483;28;19967;-67
2021/08/25 11:16:25;;;;;;;0.30;0.20;;;;;;;;;;10295417;28;20041;-66
2021/08/25 11:21:22;;;;;;;1.00;0.28;;;;;;;;;;10250611;28;20317;-66
2021/08/25 11:26:20;;;;;;;;;;;;;;;;;;10268489;28;20479;-65
2021/08/25 11:31:25;;;;;;;0.60;0.30;;;;;;;;;;10294071;28;19913;-65
2021/08/25 11:36:22;;;;;;;0.75;0.55;;;;;;;;;;10268962;28;20483;-69
2021/08/25 11:41:19;;;;;;;0.33;0.20;;;;;;;;;;10275121;28;20472;-64
2021/08/25 11:46:17;;;;;;;;;;;;;;;;;;10273327;28;20166;-66
2021/08/25 11:51:14;;;;;;;0.65;0.25;;;;;;;;;;10271391;28;19928;-64
2021/08/25 11:56:12;;;;;;;;;;;;;;;;;;10282283;28;20492;-67
2021/08/25 12:01:22;;;;;;;0.93;0.30;;;;;;;;;;10281829;28;19927;-68
2021/08/25 12:06:19;;;;;;;0.32;0.30;;;;;;;;;;10267951;28;20060;-65
2021/08/25 12:11:20;;;;;;;1.83;0.60;;;;;;;;;;10290596;28;20037;-67
2021/08/25 12:16:30;;;;;;;1.05;0.10;;;;;;;;;;10259063;28;20040;-65
2021/08/25 12:21:29;;;;;;;0.15;0.10;;;;;;;;;;10270830;28;20063;-67
2021/08/25 12:26:28;;;;;;;0.40;0.30;;;;;;;;;;10248399;28;20132;-66
2021/08/25 12:31:26;;;;;;;0.13;0.13;;;;;;;;;;10275120;28;20128;-65
2021/08/25 12:36:25;;;;;;;1.40;0.20;;;;;;;;;;10258367;28;20041;-66
2021/08/25 12:41:23;;;;;;;0.73;0.22;;;;;;;;;;10266080;28;20186;-65
2021/08/25 12:46:21;;;;;;;;;;;;;;;;;;10280472;28;20037;-66
2021/08/25 12:51:18;;;;;;;2.00;0.57;;;;;;;;;;10257978;28;19913;-64
2021/08/25 12:56:16;;;;;;;0.53;0.30;;;;;;;;;;10256386;28;20135;-66
2021/08/25 13:01:14;;;;;;;0.52;0.40;;;;;;;;;;10232546;28;20055;-65
2021/08/25 13:06:11;;;;;;;0.67;0.43;;;;;;;;;;10269774;28;20056;-65
2021/08/25 13:11:09;;;;;;;1.50;0.57;;;;;;;;;;10237571;28;20030;-68
2021/08/25 13:16:06;;;;;;;2.53;0.60;;;;;;;;;;10262718;28;20034;-66
2021/08/25 13:21:04;;;;;;;0.50;0.50;;;;;;;;;;10287353;28;20036;-67
2021/08/25 13:26:01;;;;;;;1.20;0.60;;;;;;;;;;10279126;28;20029;-65
2021/08/25 13:30:59;;;;;;;1.37;0.57;;;;;;;;;;10263483;28;20502;-66
2021/08/25 13:35:56;;;;;;;3.00;0.70;;;;;;;;;;10273840;28;20030;-66
2021/08/25 13:40:53;;;;;;;2.17;0.87;;;;;;;;;;10278844;28;20107;-66
2021/08/25 13:45:51;;;;;;;0.93;0.70;;;;;;;;;;10259835;28;20116;-68
2021/08/25 13:50:48;;;;;;;3.07;0.80;;;;;;;;;;10242335;28;20559;-65
2021/08/25 13:55:46;;;;;;;4.27;0.90;;;;;;;;;;10286969;28;20275;-62
2021/08/25 14:00:44;;;;;;;1.43;0.90;;;;;;;;;;10260093;28;20055;-63
2021/08/25 14:05:42;;;;;;;2.05;0.90;;;;;;;;;;10277364;28;20112;-61
2021/08/25 14:10:40;;;;;;;1.57;0.90;;;;;;;;;;10248727;28;20034;-65
2021/08/25 14:15:37;;;;;;;22.37;5.23;;;;;;;;;;10279854;28;20383;-64
2021/08/25 14:20:35;;;;;;;9.60;3.00;;;;;;;;;;10263011;28;20052;-63
2021/08/25 14:25:32;;;;;;;5.80;1.23;;;;;;;;;;10246475;28;20057;-64
2021/08/25 14:30:31;;;;;;;3.87;1.37;;;;;;;;;;10264785;28;20030;-64
2021/08/25 14:35:28;;;;;;;2.40;0.90;;;;;;;;;;10266979;28;20487;-64
2021/08/25 14:40:25;;;;;;;4.80;1.77;;;;;;;;;;10278587;28;20464;-64
2021/08/25 14:45:23;;;;;;;4.23;1.07;;;;;;;;;;10277996;28;20037;-66
2021/08/25 14:50:21;;;;;;;0.80;0.80;;;;;;;;;;10263039;28;20061;-64
2021/08/25 14:55:18;;;;;;;3.70;0.73;;;;;;;;;;10282115;28;20095;-62
2021/08/25 15:00:16;;;;;;;0.90;0.90;;;;;;;;;;10273865;28;20048;-64
2021/08/25 15:05:13;;;;;;;0.50;0.33;;;;;;;;;;10262298;28;20034;-66
2021/08/25 15:10:12;;;;;;;1.60;0.63;;;;;;;;;;10301162;28;20033;-62
2021/08/25 15:15:09;;;;;;;0.98;0.45;;;;;;;;;;10282284;28;20129;-62
2021/08/25 15:20:08;;;;;;;1.08;0.50;;;;;;;;;;10293905;28;20137;-64
2021/08/25 15:25:06;;;;;;;3.63;0.75;;;;;;;;;;10248987;28;20033;-64
2021/08/25 15:30:04;;;;;;;0.93;0.67;;;;;;;;;;10294126;28;20036;-63
2021/08/25 15:35:02;;;;;;;4.28;0.80;;;;;;;;;;10276311;28;20282;-63
2021/08/25 15:39:59;;;;;;;1.40;0.68;;;;;;;;;;10272345;28;20056;-62
2021/08/25 15:44:57;;;;;;;0.77;0.57;;;;;;;;;;10281717;28;20095;-62
2021/08/25 15:49:54;;;;;;;1.80;0.73;;;;;;;;;;10282275;28;20034;-65
2021/08/25 15:54:52;;;;;;;2.97;0.90;;;;;;;;;;10276859;28;20063;-69
2021/08/25 15:59:53;;;;;;;4.77;0.77;;;;;;;;;;10294818;28;20033;-65
2021/08/25 16:04:51;;;;;;;1.55;0.47;;;;;;;;;;10288333;28;20037;-65
2021/08/25 16:09:49;;;;;;;0.38;0.30;;;;;;;;;;10291688;28;20068;-65
2021/08/25 16:14:46;;;;;;;2.10;0.40;;;;;;;;;;10247153;28;20054;-60
2021/08/25 16:19:44;;;;;;;4.90;0.70;;;;;;;;;;10283125;28;20048;-63
2021/08/25 16:24:41;;;;;;;6.70;1.30;;;;;;;;;;10265409;28;20553;-62
2021/08/25 16:29:39;;;;;;;2.80;0.83;;;;;;;;;;10263769;28;20100;-64
2021/08/25 16:34:36;;;;;;;1.80;0.82;;;;;;;;;;10270304;28;20040;-67
2021/08/25 16:39:34;;;;;;;3.10;1.07;;;;;;;;;;10258738;28;20034;-68
2021/08/25 16:44:32;;;;;;;0.93;0.65;;;;;;;;;;10265047;28;20032;-65
2021/08/25 16:49:29;;;;;;;2.27;0.87;;;;;;;;;;10272840;28;20045;-63
2021/08/25 16:54:26;;;;;;;1.27;0.60;;;;;;;;;;10276909;28;20371;-65
2021/08/25 16:59:24;;;;;;;1.23;0.43;;;;;;;;;;10259922;28;20375;-65
2021/08/25 17:04:23;;;;;;;2.10;0.70;;;;;;;;;;10280296;28;20032;-63
2021/08/25 17:09:22;;;;;;;2.63;0.60;;;;;;;;;;10288403;28;20112;-69
2021/08/25 17:14:20;;;;;;;5.70;0.77;;;;;;;;;;10283485;28;20187;-66
2021/08/25 17:19:17;;;;;;;4.57;0.77;;;;;;;;;;10268690;28;20042;-67
2021/08/25 17:24:15;;;;;;;1.47;0.63;;;;;;;;;;10265900;28;20033;-66
2021/08/25 17:29:12;;;;;;;2.33;0.47;;;;;;;;;;10259512;28;20033;-66
2021/08/25 17:34:09;;;;;;;4.83;1.00;;;;;;;;;;10273559;28;20116;-63
2021/08/25 17:39:07;;;;;;;1.97;0.67;;;;;;;;;;10258558;28;20522;-64
2021/08/25 17:44:04;;;;;;;4.57;0.73;;;;;;;;;;10273942;28;20034;-66
2021/08/25 17:49:02;;;;;;;6.00;1.47;;;;;;;;;;10273829;28;20060;-63
2021/08/25 17:53:59;;;;;;;1.77;0.90;;;;;;;;;;10279041;28;20503;-64
2021/08/25 17:58:57;;;;;;;1.17;0.70;;;;;;;;;;10272185;28;20289;-66
2021/08/25 18:03:54;;;;;;;1.50;0.63;;;;;;;;;;10261725;28;20688;-64
2021/08/25 18:08:52;;;;;;;5.23;0.60;;;;;;;;;;10274355;28;20522;-63
2021/08/25 18:13:49;;;;;;;7.83;1.23;;;;;;;;;;10278019;28;20040;-65
2021/08/25 18:18:48;;;;;;;1.92;0.90;;;;;;;;;;10269560;28;20038;-67
2021/08/25 18:23:46;;;;;;;8.73;1.27;;;;;;;;;;10257105;28;20034;-67
2021/08/25 18:28:43;;;;;;;4.07;1.08;;;;;;;;;;10267882;28;20037;-67
2021/08/25 18:33:41;;;;;;;8.37;1.63;;;;;;;;;;10268283;28;20030;-66
2021/08/25 18:38:39;;;;;;;2.83;1.27;;;;;;;;;;10264129;28;20038;-66
2021/08/25 18:43:36;;;;;;;;;;;;;;;;;;10260857;28;20056;-64
2021/08/25 18:48:34;;;;;;;4.20;1.30;;;;;;;;;;10274684;28;19917;-65
2021/08/25 18:53:32;;;;;;;5.03;1.17;;;;;;;;;;10286928;28;20075;-64
2021/08/25 18:58:29;;;;;;;3.45;0.70;;;;;;;;;;10280070;28;20518;-63
2021/08/25 19:03:27;;;;;;;3.77;1.27;;;;;;;;;;10258289;28;20453;-66
2021/08/25 19:08:24;;;;;;;3.63;1.70;;;;;;;;;;10283623;28;20403;-65
2021/08/25 19:13:23;;;;;;;5.60;1.50;;;;;;;;;;10276950;28;20034;-66
2021/08/25 19:18:20;;;;;;;6.47;1.58;;;;;;;;;;10281300;28;20034;-64
2021/08/25 19:23:18;;;;;;;7.20;1.53;;;;;;;;;;10280236;28;20029;-64
2021/08/25 19:28:16;;;;;;;6.28;1.73;;;;;;;;;;10264083;28;20789;-64
2021/08/25 19:33:14;;;;;;;4.33;1.30;;;;;;;;;;10265184;28;20064;-63
2021/08/25 19:38:11;;;;;;;2.20;1.60;;;;;;;;;;10264045;28;20034;-65
2021/08/25 19:43:09;;;;;;;9.03;1.77;;;;;;;;;;10268334;28;20029;-64
2021/08/25 19:48:07;;;;;;;6.53;1.73;;;;;;;;;;10259929;28;20049;-65
2021/08/25 19:53:04;;;;;;;4.70;1.33;;;;;;;;;;10240853;28;20064;-64
2021/08/25 19:58:02;;;;;;;5.23;2.47;;;;;;;;;;10273819;28;20413;-63
2021/08/25 20:02:59;;;;;;;6.83;2.30;;;;;;;;;;10253298;28;20025;-65
2021/08/25 20:07:57;;;;;;;8.50;2.47;;;;;;;;;;10270576;28;20038;-64
2021/08/25 20:12:54;;;;;;;11.40;2.60;;;;;;;;;;10253206;28;20034;-67
2021/08/25 20:17:52;;;;;;;15.83;2.73;;;;;;;;;;10277156;28;20034;-65
2021/08/25 20:22:49;;;;;;;5.17;1.80;;;;;;;;;;10273564;28;20037;-64
2021/08/25 20:27:47;;;;;;;14.53;3.37;;;;;;;;;;10278621;28;20079;-65
2021/08/25 20:32:45;;;;;;;15.53;2.67;;;;;;;;;;10285831;28;20029;-65
2021/08/25 20:37:42;;;;;;;14.63;2.30;;;;;;;;;;10270878;28;20052;-65
2021/08/25 20:42:40;;;;;;;23.87;3.23;;;;;;;;;;10245192;28;20033;-66
2021/08/25 20:47:39;;;;;;;20.47;3.87;;;;;;;;;;10251064;28;20037;-66
2021/08/25 20:52:39;;;;;;;12.07;2.05;;;;;;;;;;10278225;28;20137;-66
2021/08/25 20:57:37;;;;;;;21.83;4.28;;;;;;;;;;10241357;28;20818;-66
2021/08/25 21:02:35;;;;;;;12.60;2.03;;;;;;;;;;10250203;28;20462;-65
2021/08/25 21:07:32;;;;;;;12.75;2.75;;;;;;;;;;10280635;28;20034;-67
2021/08/25 21:12:30;;;;;;;12.60;2.07;;;;;;;;;;10264777;28;20045;-65
2021/08/25 21:17:27;;;;;;;1.30;0.70;;;;;;;;;;10276945;28;20045;-65
2021/08/25 21:22:25;;;;;;;6.60;1.47;;;;;;;;;;10264062;28;20128;-64
2021/08/25 21:27:22;;;;;;;9.20;2.13;;;;;;;;;;10262530;28;20029;-65
2021/08/25 21:32:19;;;;;;;3.80;0.97;;;;;;;;;;10272995;28;20091;-64
2021/08/25 21:37:17;;;;;;;1.43;0.93;;;;;;;;;;10279908;28;20120;-65
2021/08/25 21:42:14;;;;;;;11.17;2.50;;;;;;;;;;10256099;28;20037;-63
2021/08/25 21:47:12;;;;;;;5.20;1.43;;;;;;;;;;10263011;28;20038;-65
2021/08/25 21:52:10;;;;;;;6.97;1.48;;;;;;;;;;10245826;28;20038;-66
2021/08/25 21:57:07;;;;;;;9.43;1.97;;;;;;;;;;10268846;28;20115;-66
2021/08/25 22:02:04;;;;;;;6.80;1.93;;;;;;;;;;10275030;28;20030;-64
2021/08/25 22:07:02;;;;;;;10.57;2.27;;;;;;;;;;10276297;28;20115;-65
2021/08/25 22:12:00;;;;;;;6.20;1.95;;;;;;;;;;10252311;28;20032;-65
2021/08/25 22:16:57;;;;;;;9.43;1.73;;;;;;;;;;10247459;28;20040;-64
2021/08/25 22:21:55;;;;;;;6.03;1.70;;;;;;;;;;10286544;28;20034;-65
2021/08/25 22:26:52;;;;;;;9.63;1.70;;;;;;;;;;10292810;28;20022;-64
2021/08/25 22:31:49;;;;;;;4.07;1.20;;;;;;;;;;10285096;28;20197;-62
2021/08/25 22:36:47;;;;;;;12.17;2.40;;;;;;;;;;10266297;28;20046;-62
2021/08/25 22:41:44;;;;;;;6.73;1.30;;;;;;;;;;10272530;28;20033;-64
2021/08/25 22:46:41;;;;;;;3.40;1.30;;;;;;;;;;10296356;28;20033;-64
2021/08/25 22:51:39;;;;;;;3.47;1.00;;;;;;;;;;10274885;28;20121;-63
2021/08/25 22:56:36;;;;;;;7.97;1.57;;;;;;;;;;10297571;28;20748;-63
2021/08/25 23:01:34;;;;;;;6.33;1.90;;;;;;;;;;10273384;28;20526;-64
2021/08/25 23:06:31;;;;;;;4.87;1.30;;;;;;;;;;10284451;28;20383;-64
2021/08/25 23:11:28;;;;;;;7.27;1.57;;;;;;;;;;10284111;28;20034;-62
2021/08/25 23:16:26;;;;;;;5.57;1.30;;;;;;;;;;10292920;28;20033;-63
2021/08/25 23:21:23;;;;;;;6.40;0.97;;;;;;;;;;10288045;28;20034;-64
2021/08/25 23:26:21;;;;;;;7.00;1.23;;;;;;;;;;10264504;28;20026;-66
2021/08/25 23:31:18;;;;;;;7.80;1.33;;;;;;;;;;10288469;28;20052;-64
2021/08/25 23:36:15;;;;;;;6.50;1.30;;;;;;;;;;10290053;28;20088;-65
2021/08/25 23:41:13;;;;;;;7.67;1.73;;;;;;;;;;10251056;28;20268;-64
2021/08/25 23:46:10;;;;;;;7.97;1.47;;;;;;;;;;10282488;28;20088;-65
2021/08/25 23:51:07;;;;;;;5.53;1.47;;;;;;;;;;10271362;28;20401;-65
2021/08/25 23:56:05;;;;;;;3.33;1.67;;;;;;;;;;10278739;28;20045;-64
